sensor_id;sensor_type;location;lat;lon;timestamp;temperature;humidity
43949;DHT22;29429;51.074;13.764;2023-02-21T15:02:26;12.00;99.90
43949;DHT22;29429;51.074;13.764;2023-02-21T15:05:02;12.00;99.90
43949;DHT22;29429;51.074;13.764;2023-02-21T15:10:23;12.00;99.90
43949;DHT22;29429;51.074;13.764;2023-02-21T15:13:03;12.00;99.90
43949;DHT22;29429;51.074;13.764;2023-02-21T15:15:34;12.00;99.90
43949;DHT22;29429;51.074;13.764;2023-02-21T15:18:07;11.90;99.90
43949;DHT22;29429;51.074;13.764;2023-02-21T15:20:40;11.90;99.90
43949;DHT22;29429;51.074;13.764;2023-02-21T15:23:14;11.90;99.90
43949;DHT22;29429;51.074;13.764;2023-02-21T15:25:51;11.90;99.90
43949;DHT22;29429;51.074;13.764;2023-02-21T15:28:29;11.90;99.90
43949;DHT22;29429;51.074;13.764;2023-02-21T15:31:07;11.80;99.90
43949;DHT22;29429;51.074;13.764;2023-02-21T15:33:45;11.80;99.90
43949;DHT22;29429;51.074;13.764;2023-02-21T15:36:21;11.80;99.90
43949;DHT22;29429;51.074;13.764;2023-02-21T15:41:49;11.70;99.90
43949;DHT22;29429;51.074;13.764;2023-02-21T15:50:02;11.70;99.90
43949;DHT22;29429;51.074;13.764;2023-02-21T15:52:48;11.70;99.90
43949;DHT22;29429;51.074;13.764;2023-02-21T16:03:26;11.60;99.90
43949;DHT22;29429;51.074;13.764;2023-02-21T16:06:21;11.60;99.90
43949;DHT22;29429;51.074;13.764;2023-02-21T16:09:06;11.60;99.90
43949;DHT22;29429;51.074;13.764;2023-02-21T16:14:38;11.60;99.90
43949;DHT22;29429;51.074;13.764;2023-02-21T16:22:40;11.50;99.90
43949;DHT22;29429;51.074;13.764;2023-02-21T16:25:30;11.40;99.90
43949;DHT22;29429;51.074;13.764;2023-02-21T16:27:59;11.40;99.90
43949;DHT22;29429;51.074;13.764;2023-02-21T16:30:29;11.40;99.90
43949;DHT22;29429;51.074;13.764;2023-02-21T16:32:59;11.40;99.90
43949;DHT22;29429;51.074;13.764;2023-02-21T16:35:30;11.40;99.90
43949;DHT22;29429;51.074;13.764;2023-02-21T16:37:59;11.30;99.90
43949;DHT22;29429;51.074;13.764;2023-02-21T16:40:32;11.40;99.90
43949;DHT22;29429;51.074;13.764;2023-02-21T16:43:02;11.40;99.90
43949;DHT22;29429;51.074;13.764;2023-02-21T16:45:31;11.40;99.90
43949;DHT22;29429;51.074;13.764;2023-02-21T16:48:01;11.40;99.90
43949;DHT22;29429;51.074;13.764;2023-02-21T16:50:33;11.40;99.90
43949;DHT22;29429;51.074;13.764;2023-02-21T16:53:02;11.40;99.90
43949;DHT22;29429;51.074;13.764;2023-02-21T16:55:30;11.30;99.90
43949;DHT22;29429;51.074;13.764;2023-02-21T16:58:04;11.40;99.90
43949;DHT22;29429;51.074;13.764;2023-02-21T17:00:34;11.30;99.90
43949;DHT22;29429;51.074;13.764;2023-02-21T17:03:01;11.30;99.90
43949;DHT22;29429;51.074;13.764;2023-02-21T17:05:28;11.30;99.90
43949;DHT22;29429;51.074;13.764;2023-02-21T17:07:55;11.30;99.90
43949;DHT22;29429;51.074;13.764;2023-02-21T17:10:26;11.20;99.90
43949;DHT22;29429;51.074;13.764;2023-02-21T17:12:53;11.20;99.90
43949;DHT22;29429;51.074;13.764;2023-02-21T17:15:20;11.20;99.90
43949;DHT22;29429;51.074;13.764;2023-02-21T17:17:49;11.30;99.90
43949;DHT22;29429;51.074;13.764;2023-02-21T17:20:21;11.20;99.90
43949;DHT22;29429;51.074;13.764;2023-02-21T17:22:52;11.20;99.90
43949;DHT22;29429;51.074;13.764;2023-02-21T17:25:21;11.20;99.90
43949;DHT22;29429;51.074;13.764;2023-02-21T17:27:49;11.20;99.90
43949;DHT22;29429;51.074;13.764;2023-02-21T17:30:18;11.20;99.90
43949;DHT22;29429;51.074;13.764;2023-02-21T17:32:47;11.20;99.90
43949;DHT22;29429;51.074;13.764;2023-02-21T17:35:16;11.20;99.90
43949;DHT22;29429;51.074;13.764;2023-02-21T17:37:45;11.20;99.90
43949;DHT22;29429;51.074;13.764;2023-02-21T17:40:21;11.20;99.90
43949;DHT22;29429;51.074;13.764;2023-02-21T17:42:51;11.20;99.90
43949;DHT22;29429;51.074;13.764;2023-02-21T17:45:19;11.20;99.90
43949;DHT22;29429;51.074;13.764;2023-02-21T17:47:48;11.20;99.90
43949;DHT22;29429;51.074;13.764;2023-02-21T17:50:17;11.20;99.90
43949;DHT22;29429;51.074;13.764;2023-02-21T17:52:44;11.10;99.90
43949;DHT22;29429;51.074;13.764;2023-02-21T17:55:19;11.10;99.90
43949;DHT22;29429;51.074;13.764;2023-02-21T17:57:48;11.10;99.90
43949;DHT22;29429;51.074;13.764;2023-02-21T18:00:24;11.10;99.90
43949;DHT22;29429;51.074;13.764;2023-02-21T18:02:54;11.10;99.90
43949;DHT22;29429;51.074;13.764;2023-02-21T18:05:22;11.10;99.90
43949;DHT22;29429;51.074;13.764;2023-02-21T18:07:51;11.10;99.90
43949;DHT22;29429;51.074;13.764;2023-02-21T18:10:22;11.10;99.90
43949;DHT22;29429;51.074;13.764;2023-02-21T18:12:51;11.10;99.90
43949;DHT22;29429;51.074;13.764;2023-02-21T18:15:21;11.10;99.90
43949;DHT22;29429;51.074;13.764;2023-02-21T18:17:49;11.10;99.90
43949;DHT22;29429;51.074;13.764;2023-02-21T18:20:17;11.10;99.90
43949;DHT22;29429;51.074;13.764;2023-02-21T18:22:45;11.00;99.90
43949;DHT22;29429;51.074;13.764;2023-02-21T18:25:12;11.10;99.90
43949;DHT22;29429;51.074;13.764;2023-02-21T18:27:47;11.00;99.90
43949;DHT22;29429;51.074;13.764;2023-02-21T18:30:39;11.00;99.90
43949;DHT22;29429;51.074;13.764;2023-02-21T18:33:11;11.00;99.90
43949;DHT22;29429;51.074;13.764;2023-02-21T18:35:40;11.00;99.90
43949;DHT22;29429;51.074;13.764;2023-02-21T18:38:12;11.00;99.90
43949;DHT22;29429;51.074;13.764;2023-02-21T18:40:42;11.00;99.90
43949;DHT22;29429;51.074;13.764;2023-02-21T18:43:17;11.00;99.90
43949;DHT22;29429;51.074;13.764;2023-02-21T18:45:48;11.00;99.90
43949;DHT22;29429;51.074;13.764;2023-02-21T18:48:17;11.00;99.90
43949;DHT22;29429;51.074;13.764;2023-02-21T18:50:45;10.90;99.90
43949;DHT22;29429;51.074;13.764;2023-02-21T18:53:13;10.90;99.90
43949;DHT22;29429;51.074;13.764;2023-02-21T18:55:41;10.90;99.90
43949;DHT22;29429;51.074;13.764;2023-02-21T18:58:08;10.90;99.90
43949;DHT22;29429;51.074;13.764;2023-02-21T19:00:36;10.90;99.90
43949;DHT22;29429;51.074;13.764;2023-02-21T19:03:08;10.90;99.90
43949;DHT22;29429;51.074;13.764;2023-02-21T19:05:36;10.90;99.90
43949;DHT22;29429;51.074;13.764;2023-02-21T19:08:03;10.90;99.90
43949;DHT22;29429;51.074;13.764;2023-02-21T19:10:31;10.90;99.90
43949;DHT22;29429;51.074;13.764;2023-02-21T19:12:58;10.80;99.90
43949;DHT22;29429;51.074;13.764;2023-02-21T19:15:28;10.90;99.90
43949;DHT22;29429;51.074;13.764;2023-02-21T19:17:59;10.80;99.90
43949;DHT22;29429;51.074;13.764;2023-02-21T19:20:26;10.80;99.90
43949;DHT22;29429;51.074;13.764;2023-02-21T19:22:53;10.70;99.90
43949;DHT22;29429;51.074;13.764;2023-02-21T19:25:24;10.80;99.90
43949;DHT22;29429;51.074;13.764;2023-02-21T19:27:54;10.80;99.90
43949;DHT22;29429;51.074;13.764;2023-02-21T19:30:27;10.80;99.90
43949;DHT22;29429;51.074;13.764;2023-02-21T19:32:56;10.80;99.90
43949;DHT22;29429;51.074;13.764;2023-02-21T19:35:28;10.80;99.90
43949;DHT22;29429;51.074;13.764;2023-02-21T19:38:00;10.80;99.90
43949;DHT22;29429;51.074;13.764;2023-02-21T19:40:28;10.80;99.90
43949;DHT22;29429;51.074;13.764;2023-02-21T19:42:56;10.70;99.90
43949;DHT22;29429;51.074;13.764;2023-02-21T19:45:23;10.70;99.90
43949;DHT22;29429;51.074;13.764;2023-02-21T19:47:51;10.80;99.90
43949;DHT22;29429;51.074;13.764;2023-02-21T19:50:19;10.80;99.90
43949;DHT22;29429;51.074;13.764;2023-02-21T19:52:57;10.70;99.90
43949;DHT22;29429;51.074;13.764;2023-02-21T19:55:29;10.80;99.90
43949;DHT22;29429;51.074;13.764;2023-02-21T19:57:57;10.70;99.90
43949;DHT22;29429;51.074;13.764;2023-02-21T20:00:24;10.70;99.90
43949;DHT22;29429;51.074;13.764;2023-02-21T20:02:53;10.70;99.90
43949;DHT22;29429;51.074;13.764;2023-02-21T20:05:21;10.70;99.90
43949;DHT22;29429;51.074;13.764;2023-02-21T20:07:48;10.70;99.90
43949;DHT22;29429;51.074;13.764;2023-02-21T20:10:17;10.70;99.90
43949;DHT22;29429;51.074;13.764;2023-02-21T20:12:54;10.70;99.90
43949;DHT22;29429;51.074;13.764;2023-02-21T20:15:23;10.70;99.90
43949;DHT22;29429;51.074;13.764;2023-02-21T20:17:50;10.70;99.90
43949;DHT22;29429;51.074;13.764;2023-02-21T20:20:20;10.70;99.90
43949;DHT22;29429;51.074;13.764;2023-02-21T20:22:47;10.60;99.90
43949;DHT22;29429;51.074;13.764;2023-02-21T20:25:16;10.60;99.90
43949;DHT22;29429;51.074;13.764;2023-02-21T20:27:43;10.60;99.90
43949;DHT22;29429;51.074;13.764;2023-02-21T20:30:11;10.60;99.90
43949;DHT22;29429;51.074;13.764;2023-02-21T20:32:40;10.60;99.90
43949;DHT22;29429;51.074;13.764;2023-02-21T20:35:08;10.60;99.90
43949;DHT22;29429;51.074;13.764;2023-02-21T20:37:36;10.60;99.90
43949;DHT22;29429;51.074;13.764;2023-02-21T20:40:04;10.60;99.90
43949;DHT22;29429;51.074;13.764;2023-02-21T20:42:34;10.60;99.90
43949;DHT22;29429;51.074;13.764;2023-02-21T20:45:02;10.60;99.90
43949;DHT22;29429;51.074;13.764;2023-02-21T20:47:29;10.50;99.90
43949;DHT22;29429;51.074;13.764;2023-02-21T20:49:57;10.50;99.90
43949;DHT22;29429;51.074;13.764;2023-02-21T20:52:24;10.50;99.90
43949;DHT22;29429;51.074;13.764;2023-02-21T20:54:51;10.50;99.90
43949;DHT22;29429;51.074;13.764;2023-02-21T20:57:19;10.50;99.90
43949;DHT22;29429;51.074;13.764;2023-02-21T20:59:47;10.50;99.90
43949;DHT22;29429;51.074;13.764;2023-02-21T21:02:14;10.50;99.90
43949;DHT22;29429;51.074;13.764;2023-02-21T21:04:42;10.50;99.90
43949;DHT22;29429;51.074;13.764;2023-02-21T21:07:19;10.50;99.90
43949;DHT22;29429;51.074;13.764;2023-02-21T21:09:49;10.50;99.90
43949;DHT22;29429;51.074;13.764;2023-02-21T21:12:22;10.50;99.90
43949;DHT22;29429;51.074;13.764;2023-02-21T21:14:51;10.40;99.90
43949;DHT22;29429;51.074;13.764;2023-02-21T21:17:21;10.40;99.90
43949;DHT22;29429;51.074;13.764;2023-02-21T21:19:49;10.40;99.90
43949;DHT22;29429;51.074;13.764;2023-02-21T21:22:24;10.40;99.90
43949;DHT22;29429;51.074;13.764;2023-02-21T21:24:53;10.40;99.90
43949;DHT22;29429;51.074;13.764;2023-02-21T21:27:21;10.40;99.90
43949;DHT22;29429;51.074;13.764;2023-02-21T21:29:50;10.40;99.90
43949;DHT22;29429;51.074;13.764;2023-02-21T21:32:21;10.40;99.90
43949;DHT22;29429;51.074;13.764;2023-02-21T21:34:51;10.40;99.90
43949;DHT22;29429;51.074;13.764;2023-02-21T21:37:27;10.40;99.90
43949;DHT22;29429;51.074;13.764;2023-02-21T21:39:55;10.40;99.90
43949;DHT22;29429;51.074;13.764;2023-02-21T21:42:28;10.30;99.90
43949;DHT22;29429;51.074;13.764;2023-02-21T21:44:57;10.30;99.90
43949;DHT22;29429;51.074;13.764;2023-02-21T21:47:43;10.30;99.90
43949;DHT22;29429;51.074;13.764;2023-02-21T21:50:37;10.30;99.90
43949;DHT22;29429;51.074;13.764;2023-02-21T21:54:06;10.20;99.90
43949;DHT22;29429;51.074;13.764;2023-02-21T21:56:33;10.40;99.90
43949;DHT22;29429;51.074;13.764;2023-02-21T21:59:01;10.40;99.90
43949;DHT22;29429;51.074;13.764;2023-02-21T22:01:28;10.40;99.90
43949;DHT22;29429;51.074;13.764;2023-02-21T22:03:55;10.40;99.90
43949;DHT22;29429;51.074;13.764;2023-02-21T22:06:23;10.30;99.90
43949;DHT22;29429;51.074;13.764;2023-02-21T22:08:52;10.40;99.90
43949;DHT22;29429;51.074;13.764;2023-02-21T22:11:20;10.30;99.90
43949;DHT22;29429;51.074;13.764;2023-02-21T22:13:48;10.30;99.90
43949;DHT22;29429;51.074;13.764;2023-02-21T22:16:16;10.30;99.90
43949;DHT22;29429;51.074;13.764;2023-02-21T22:18:43;10.20;99.90
43949;DHT22;29429;51.074;13.764;2023-02-21T22:21:14;10.20;99.90
43949;DHT22;29429;51.074;13.764;2023-02-21T22:23:42;10.10;99.90
43949;DHT22;29429;51.074;13.764;2023-02-21T22:26:17;10.10;99.90
43949;DHT22;29429;51.074;13.764;2023-02-21T22:28:45;10.10;99.90
43949;DHT22;29429;51.074;13.764;2023-02-21T22:31:13;10.10;99.90
43949;DHT22;29429;51.074;13.764;2023-02-21T22:33:43;10.00;99.90
43949;DHT22;29429;51.074;13.764;2023-02-21T22:36:12;10.10;99.90
43949;DHT22;29429;51.074;13.764;2023-02-21T22:38:42;10.10;99.90
43949;DHT22;29429;51.074;13.764;2023-02-21T22:41:22;10.10;99.90
43949;DHT22;29429;51.074;13.764;2023-02-21T22:43:53;10.00;99.90
43949;DHT22;29429;51.074;13.764;2023-02-21T22:46:24;10.10;99.90
43949;DHT22;29429;51.074;13.764;2023-02-21T22:48:54;10.10;99.90
43949;DHT22;29429;51.074;13.764;2023-02-21T22:51:26;10.10;99.90
43949;DHT22;29429;51.074;13.764;2023-02-21T22:53:53;10.10;99.90
43949;DHT22;29429;51.074;13.764;2023-02-21T22:56:22;10.20;99.90
43949;DHT22;29429;51.074;13.764;2023-02-21T22:58:52;10.00;99.90
43949;DHT22;29429;51.074;13.764;2023-02-21T23:01:23;10.00;99.90
43949;DHT22;29429;51.074;13.764;2023-02-21T23:03:55;10.10;99.90
43949;DHT22;29429;51.074;13.764;2023-02-21T23:06:36;10.00;99.90
43949;DHT22;29429;51.074;13.764;2023-02-21T23:09:04;9.90;99.90
43949;DHT22;29429;51.074;13.764;2023-02-21T23:11:39;9.90;99.90
43949;DHT22;29429;51.074;13.764;2023-02-21T23:14:15;9.90;99.90
43949;DHT22;29429;51.074;13.764;2023-02-21T23:16:44;10.00;99.90
43949;DHT22;29429;51.074;13.764;2023-02-21T23:19:11;10.00;99.90
43949;DHT22;29429;51.074;13.764;2023-02-21T23:21:46;9.90;99.90
43949;DHT22;29429;51.074;13.764;2023-02-21T23:24:16;9.90;99.90
43949;DHT22;29429;51.074;13.764;2023-02-21T23:26:46;9.90;99.90
43949;DHT22;29429;51.074;13.764;2023-02-21T23:29:19;9.90;99.90
43949;DHT22;29429;51.074;13.764;2023-02-21T23:31:53;9.90;99.90
43949;DHT22;29429;51.074;13.764;2023-02-21T23:34:34;9.90;99.90
43949;DHT22;29429;51.074;13.764;2023-02-21T23:37:08;9.90;99.90
43949;DHT22;29429;51.074;13.764;2023-02-21T23:39:39;9.80;99.90
43949;DHT22;29429;51.074;13.764;2023-02-21T23:42:07;9.90;99.90
43949;DHT22;29429;51.074;13.764;2023-02-21T23:44:36;9.80;99.90
43949;DHT22;29429;51.074;13.764;2023-02-21T23:47:03;9.80;99.90
43949;DHT22;29429;51.074;13.764;2023-02-21T23:49:31;9.80;99.90
43949;DHT22;29429;51.074;13.764;2023-02-21T23:51:59;9.80;99.90
43949;DHT22;29429;51.074;13.764;2023-02-21T23:54:27;9.70;99.90
43949;DHT22;29429;51.074;13.764;2023-02-21T23:56:54;9.60;99.90
43949;DHT22;29429;51.074;13.764;2023-02-21T23:59:26;9.60;99.90
